sensor_id;sensor_type;location;lat;lon;timestamp;temperature;humidity
20068;DHT22;10194;50.824;7.134;2022-12-24T00:01:26;11.10;99.90
20068;DHT22;10194;50.824;7.134;2022-12-24T00:03:52;11.00;99.90
20068;DHT22;10194;50.824;7.134;2022-12-24T00:06:20;11.00;99.90
20068;DHT22;10194;50.824;7.134;2022-12-24T00:08:47;10.90;99.90
20068;DHT22;10194;50.824;7.134;2022-12-24T00:11:15;10.80;99.90
20068;DHT22;10194;50.824;7.134;2022-12-24T00:13:41;10.70;99.90
20068;DHT22;10194;50.824;7.134;2022-12-24T00:16:07;10.70;99.90
20068;DHT22;10194;50.824;7.134;2022-12-24T00:18:32;10.70;99.90
20068;DHT22;10194;50.824;7.134;2022-12-24T00:20:58;10.70;99.90
20068;DHT22;10194;50.824;7.134;2022-12-24T00:23:26;10.80;99.90
20068;DHT22;10194;50.824;7.134;2022-12-24T00:25:51;10.80;99.90
20068;DHT22;10194;50.824;7.134;2022-12-24T00:28:17;10.70;99.90
20068;DHT22;10194;50.824;7.134;2022-12-24T00:30:43;10.70;99.90
20068;DHT22;10194;50.824;7.134;2022-12-24T00:33:09;10.60;99.90
20068;DHT22;10194;50.824;7.134;2022-12-24T00:35:36;10.60;99.90
20068;DHT22;10194;50.824;7.134;2022-12-24T00:38:02;10.60;99.90
20068;DHT22;10194;50.824;7.134;2022-12-24T00:40:29;10.60;99.90
20068;DHT22;10194;50.824;7.134;2022-12-24T00:42:56;10.50;99.90
20068;DHT22;10194;50.824;7.134;2022-12-24T00:45:22;10.50;99.90
20068;DHT22;10194;50.824;7.134;2022-12-24T00:47:48;10.60;99.90
20068;DHT22;10194;50.824;7.134;2022-12-24T00:50:14;10.70;99.90
20068;DHT22;10194;50.824;7.134;2022-12-24T00:52:39;10.70;99.90
20068;DHT22;10194;50.824;7.134;2022-12-24T00:55:06;10.70;99.90
20068;DHT22;10194;50.824;7.134;2022-12-24T00:57:32;10.60;99.90
20068;DHT22;10194;50.824;7.134;2022-12-24T00:59:58;10.60;99.90
20068;DHT22;10194;50.824;7.134;2022-12-24T01:02:23;10.60;99.90
20068;DHT22;10194;50.824;7.134;2022-12-24T01:04:49;10.60;99.90
20068;DHT22;10194;50.824;7.134;2022-12-24T01:07:34;10.60;99.90
20068;DHT22;10194;50.824;7.134;2022-12-24T01:10:00;10.60;99.90
20068;DHT22;10194;50.824;7.134;2022-12-24T01:12:25;10.60;99.90
20068;DHT22;10194;50.824;7.134;2022-12-24T01:14:51;10.60;99.90
20068;DHT22;10194;50.824;7.134;2022-12-24T01:17:17;10.60;99.90
20068;DHT22;10194;50.824;7.134;2022-12-24T01:19:43;10.50;99.90
20068;DHT22;10194;50.824;7.134;2022-12-24T01:22:09;10.50;99.90
20068;DHT22;10194;50.824;7.134;2022-12-24T01:24:34;10.50;99.90
20068;DHT22;10194;50.824;7.134;2022-12-24T01:27:00;10.50;99.90
20068;DHT22;10194;50.824;7.134;2022-12-24T01:29:26;10.50;99.90
20068;DHT22;10194;50.824;7.134;2022-12-24T01:31:52;10.60;99.90
20068;DHT22;10194;50.824;7.134;2022-12-24T01:34:17;10.60;99.90
20068;DHT22;10194;50.824;7.134;2022-12-24T01:36:43;10.60;99.90
20068;DHT22;10194;50.824;7.134;2022-12-24T01:39:09;10.60;99.90
20068;DHT22;10194;50.824;7.134;2022-12-24T01:41:35;10.60;99.90
20068;DHT22;10194;50.824;7.134;2022-12-24T01:44:22;10.70;99.90
20068;DHT22;10194;50.824;7.134;2022-12-24T01:49:46;10.60;99.90
20068;DHT22;10194;50.824;7.134;2022-12-24T01:52:19;10.70;99.90
20068;DHT22;10194;50.824;7.134;2022-12-24T01:54:56;10.70;99.90
20068;DHT22;10194;50.824;7.134;2022-12-24T01:57:29;10.70;99.90
20068;DHT22;10194;50.824;7.134;2022-12-24T02:00:01;10.60;99.90
20068;DHT22;10194;50.824;7.134;2022-12-24T02:02:35;10.70;99.90
20068;DHT22;10194;50.824;7.134;2022-12-24T02:07:44;10.60;99.90
20068;DHT22;10194;50.824;7.134;2022-12-24T02:10:12;10.60;99.90
20068;DHT22;10194;50.824;7.134;2022-12-24T02:12:40;10.60;99.90
20068;DHT22;10194;50.824;7.134;2022-12-24T02:15:09;10.40;99.90
20068;DHT22;10194;50.824;7.134;2022-12-24T02:18:03;10.30;99.90
20068;DHT22;10194;50.824;7.134;2022-12-24T02:21:03;10.30;99.90
20068;DHT22;10194;50.824;7.134;2022-12-24T02:27:09;10.20;99.90
20068;DHT22;10194;50.824;7.134;2022-12-24T02:32:47;10.20;99.90
20068;DHT22;10194;50.824;7.134;2022-12-24T02:35:43;10.20;99.90
20068;DHT22;10194;50.824;7.134;2022-12-24T02:38:22;10.20;99.90
20068;DHT22;10194;50.824;7.134;2022-12-24T02:40:58;10.20;99.90
20068;DHT22;10194;50.824;7.134;2022-12-24T02:43:37;10.20;99.90
20068;DHT22;10194;50.824;7.134;2022-12-24T02:46:10;10.20;99.90
20068;DHT22;10194;50.824;7.134;2022-12-24T02:48:41;10.20;99.90
20068;DHT22;10194;50.824;7.134;2022-12-24T02:51:09;10.20;99.90
20068;DHT22;10194;50.824;7.134;2022-12-24T02:53:36;10.20;99.90
20068;DHT22;10194;50.824;7.134;2022-12-24T03:05:45;10.40;99.90
20068;DHT22;10194;50.824;7.134;2022-12-24T03:08:31;10.40;99.90
20068;DHT22;10194;50.824;7.134;2022-12-24T03:11:13;10.40;99.90
20068;DHT22;10194;50.824;7.134;2022-12-24T03:13:41;10.30;99.90
20068;DHT22;10194;50.824;7.134;2022-12-24T03:16:12;10.40;99.90
20068;DHT22;10194;50.824;7.134;2022-12-24T03:18:43;10.40;99.90
20068;DHT22;10194;50.824;7.134;2022-12-24T03:21:23;10.40;99.90
20068;DHT22;10194;50.824;7.134;2022-12-24T03:23:50;10.40;99.90
20068;DHT22;10194;50.824;7.134;2022-12-24T03:26:17;10.40;99.90
20068;DHT22;10194;50.824;7.134;2022-12-24T03:28:44;10.40;99.90
20068;DHT22;10194;50.824;7.134;2022-12-24T03:31:11;10.40;99.90
20068;DHT22;10194;50.824;7.134;2022-12-24T03:33:37;10.40;99.90
20068;DHT22;10194;50.824;7.134;2022-12-24T03:36:04;10.40;99.90
20068;DHT22;10194;50.824;7.134;2022-12-24T03:38:31;10.30;99.90
20068;DHT22;10194;50.824;7.134;2022-12-24T03:40:58;10.30;99.90
20068;DHT22;10194;50.824;7.134;2022-12-24T03:43:24;10.30;99.90
20068;DHT22;10194;50.824;7.134;2022-12-24T03:45:50;10.30;99.90
20068;DHT22;10194;50.824;7.134;2022-12-24T03:48:16;10.20;99.90
20068;DHT22;10194;50.824;7.134;2022-12-24T03:50:42;10.20;99.90
20068;DHT22;10194;50.824;7.134;2022-12-24T03:53:07;10.20;99.90
20068;DHT22;10194;50.824;7.134;2022-12-24T03:55:33;10.20;99.90
20068;DHT22;10194;50.824;7.134;2022-12-24T03:57:59;10.20;99.90
20068;DHT22;10194;50.824;7.134;2022-12-24T04:00:25;10.10;99.90
20068;DHT22;10194;50.824;7.134;2022-12-24T04:02:51;10.10;99.90
20068;DHT22;10194;50.824;7.134;2022-12-24T04:05:19;10.00;99.90
20068;DHT22;10194;50.824;7.134;2022-12-24T04:07:46;10.10;99.90
20068;DHT22;10194;50.824;7.134;2022-12-24T04:10:13;10.00;99.90
20068;DHT22;10194;50.824;7.134;2022-12-24T04:12:39;10.00;99.90
20068;DHT22;10194;50.824;7.134;2022-12-24T04:15:05;10.00;99.90
20068;DHT22;10194;50.824;7.134;2022-12-24T04:17:32;10.00;99.90
20068;DHT22;10194;50.824;7.134;2022-12-24T04:19:58;10.00;99.90
20068;DHT22;10194;50.824;7.134;2022-12-24T04:22:24;9.90;99.90
20068;DHT22;10194;50.824;7.134;2022-12-24T04:24:50;9.80;99.90
20068;DHT22;10194;50.824;7.134;2022-12-24T04:27:16;9.80;99.90
20068;DHT22;10194;50.824;7.134;2022-12-24T04:29:42;9.80;99.90
20068;DHT22;10194;50.824;7.134;2022-12-24T04:32:07;9.80;99.90
20068;DHT22;10194;50.824;7.134;2022-12-24T04:34:34;9.80;99.90
20068;DHT22;10194;50.824;7.134;2022-12-24T04:37:01;9.80;99.90
20068;DHT22;10194;50.824;7.134;2022-12-24T04:39:27;9.80;99.90
20068;DHT22;10194;50.824;7.134;2022-12-24T04:41:53;9.70;99.90
20068;DHT22;10194;50.824;7.134;2022-12-24T04:44:18;9.70;99.90
20068;DHT22;10194;50.824;7.134;2022-12-24T04:46:44;9.60;99.90
20068;DHT22;10194;50.824;7.134;2022-12-24T04:49:10;9.60;99.90
20068;DHT22;10194;50.824;7.134;2022-12-24T04:51:36;9.50;99.90
20068;DHT22;10194;50.824;7.134;2022-12-24T04:54:02;9.50;99.90
20068;DHT22;10194;50.824;7.134;2022-12-24T04:56:30;9.50;99.90
20068;DHT22;10194;50.824;7.134;2022-12-24T04:58:57;9.40;99.90
20068;DHT22;10194;50.824;7.134;2022-12-24T05:01:26;9.40;99.90
20068;DHT22;10194;50.824;7.134;2022-12-24T05:03:53;9.40;99.90
20068;DHT22;10194;50.824;7.134;2022-12-24T05:06:23;9.40;99.90
20068;DHT22;10194;50.824;7.134;2022-12-24T05:08:55;9.30;99.90
20068;DHT22;10194;50.824;7.134;2022-12-24T05:11:21;9.30;99.90
20068;DHT22;10194;50.824;7.134;2022-12-24T05:13:47;9.20;99.90
20068;DHT22;10194;50.824;7.134;2022-12-24T05:16:13;9.10;99.90
20068;DHT22;10194;50.824;7.134;2022-12-24T05:18:40;9.00;99.90
20068;DHT22;10194;50.824;7.134;2022-12-24T05:21:14;9.00;99.90
20068;DHT22;10194;50.824;7.134;2022-12-24T05:23:41;8.90;99.90
20068;DHT22;10194;50.824;7.134;2022-12-24T05:26:29;8.90;99.90
20068;DHT22;10194;50.824;7.134;2022-12-24T05:28:57;8.90;99.90
20068;DHT22;10194;50.824;7.134;2022-12-24T05:31:25;8.80;99.90
20068;DHT22;10194;50.824;7.134;2022-12-24T05:33:52;8.80;99.90
20068;DHT22;10194;50.824;7.134;2022-12-24T05:36:19;8.80;99.90
20068;DHT22;10194;50.824;7.134;2022-12-24T05:38:45;8.70;99.90
20068;DHT22;10194;50.824;7.134;2022-12-24T05:41:11;8.80;99.90
20068;DHT22;10194;50.824;7.134;2022-12-24T05:43:37;8.70;99.90
20068;DHT22;10194;50.824;7.134;2022-12-24T05:46:06;8.80;99.90
20068;DHT22;10194;50.824;7.134;2022-12-24T05:48:34;8.70;99.90
20068;DHT22;10194;50.824;7.134;2022-12-24T05:51:04;8.80;99.90
20068;DHT22;10194;50.824;7.134;2022-12-24T05:53:31;8.70;99.90
20068;DHT22;10194;50.824;7.134;2022-12-24T05:56:12;8.70;99.90
20068;DHT22;10194;50.824;7.134;2022-12-24T05:58:46;8.70;99.90
20068;DHT22;10194;50.824;7.134;2022-12-24T06:01:13;8.70;99.90
20068;DHT22;10194;50.824;7.134;2022-12-24T06:03:39;8.70;99.90
20068;DHT22;10194;50.824;7.134;2022-12-24T06:06:11;8.70;99.90
20068;DHT22;10194;50.824;7.134;2022-12-24T06:08:39;8.70;99.90
20068;DHT22;10194;50.824;7.134;2022-12-24T06:11:08;8.70;99.90
20068;DHT22;10194;50.824;7.134;2022-12-24T06:13:36;8.70;99.90
20068;DHT22;10194;50.824;7.134;2022-12-24T06:16:04;8.60;99.90
20068;DHT22;10194;50.824;7.134;2022-12-24T06:18:33;8.60;99.90
20068;DHT22;10194;50.824;7.134;2022-12-24T06:21:00;8.60;99.90
20068;DHT22;10194;50.824;7.134;2022-12-24T06:23:28;8.50;99.90
20068;DHT22;10194;50.824;7.134;2022-12-24T06:25:56;8.50;99.90
20068;DHT22;10194;50.824;7.134;2022-12-24T06:28:23;8.40;99.90
20068;DHT22;10194;50.824;7.134;2022-12-24T06:30:49;8.30;99.90
20068;DHT22;10194;50.824;7.134;2022-12-24T06:33:16;8.30;99.90
20068;DHT22;10194;50.824;7.134;2022-12-24T06:35:43;8.30;99.90
20068;DHT22;10194;50.824;7.134;2022-12-24T06:38:10;8.30;99.90
20068;DHT22;10194;50.824;7.134;2022-12-24T06:40:39;8.20;99.90
20068;DHT22;10194;50.824;7.134;2022-12-24T06:43:06;8.20;99.90
20068;DHT22;10194;50.824;7.134;2022-12-24T06:45:31;8.30;99.90
20068;DHT22;10194;50.824;7.134;2022-12-24T06:47:58;8.20;99.90
20068;DHT22;10194;50.824;7.134;2022-12-24T06:50:24;8.30;99.90
20068;DHT22;10194;50.824;7.134;2022-12-24T06:52:50;8.30;99.90
20068;DHT22;10194;50.824;7.134;2022-12-24T06:55:16;8.20;99.90
20068;DHT22;10194;50.824;7.134;2022-12-24T06:57:42;8.20;99.90
20068;DHT22;10194;50.824;7.134;2022-12-24T07:00:09;8.30;99.90
20068;DHT22;10194;50.824;7.134;2022-12-24T07:02:39;8.30;99.90
20068;DHT22;10194;50.824;7.134;2022-12-24T07:05:06;8.30;99.90
20068;DHT22;10194;50.824;7.134;2022-12-24T07:07:37;8.30;99.90
20068;DHT22;10194;50.824;7.134;2022-12-24T07:10:04;8.40;99.90
20068;DHT22;10194;50.824;7.134;2022-12-24T07:12:31;8.40;99.90
20068;DHT22;10194;50.824;7.134;2022-12-24T07:14:57;8.40;99.90
20068;DHT22;10194;50.824;7.134;2022-12-24T07:17:22;8.40;99.90
20068;DHT22;10194;50.824;7.134;2022-12-24T07:19:48;8.40;99.90
20068;DHT22;10194;50.824;7.134;2022-12-24T07:22:14;8.50;99.90
20068;DHT22;10194;50.824;7.134;2022-12-24T07:24:39;8.50;99.90
20068;DHT22;10194;50.824;7.134;2022-12-24T07:27:05;8.40;99.90
20068;DHT22;10194;50.824;7.134;2022-12-24T07:29:31;8.50;99.90
20068;DHT22;10194;50.824;7.134;2022-12-24T07:31:57;8.50;99.90
20068;DHT22;10194;50.824;7.134;2022-12-24T07:34:22;8.60;99.90
20068;DHT22;10194;50.824;7.134;2022-12-24T07:36:48;8.60;99.90
20068;DHT22;10194;50.824;7.134;2022-12-24T07:39:14;8.70;99.90
20068;DHT22;10194;50.824;7.134;2022-12-24T07:41:39;8.70;99.90
20068;DHT22;10194;50.824;7.134;2022-12-24T07:44:05;8.80;99.90
20068;DHT22;10194;50.824;7.134;2022-12-24T07:46:31;8.90;99.90
20068;DHT22;10194;50.824;7.134;2022-12-24T07:48:57;8.90;99.90
20068;DHT22;10194;50.824;7.134;2022-12-24T07:51:22;8.90;99.90
20068;DHT22;10194;50.824;7.134;2022-12-24T07:53:48;8.90;99.90
20068;DHT22;10194;50.824;7.134;2022-12-24T07:56:14;8.90;99.90
20068;DHT22;10194;50.824;7.134;2022-12-24T07:58:41;9.00;99.90
20068;DHT22;10194;50.824;7.134;2022-12-24T08:01:10;9.00;99.90
20068;DHT22;10194;50.824;7.134;2022-12-24T08:03:36;9.00;99.90
20068;DHT22;10194;50.824;7.134;2022-12-24T08:06:02;9.00;99.90
20068;DHT22;10194;50.824;7.134;2022-12-24T08:08:28;8.90;99.90
20068;DHT22;10194;50.824;7.134;2022-12-24T08:11:00;9.00;99.90
20068;DHT22;10194;50.824;7.134;2022-12-24T08:13:27;9.00;99.90
20068;DHT22;10194;50.824;7.134;2022-12-24T08:15:53;9.00;99.90
20068;DHT22;10194;50.824;7.134;2022-12-24T08:18:19;9.00;99.90
20068;DHT22;10194;50.824;7.134;2022-12-24T08:20:44;9.10;99.90
20068;DHT22;10194;50.824;7.134;2022-12-24T08:23:10;9.20;99.90
20068;DHT22;10194;50.824;7.134;2022-12-24T08:25:36;9.20;99.90
20068;DHT22;10194;50.824;7.134;2022-12-24T08:28:03;9.30;99.90
20068;DHT22;10194;50.824;7.134;2022-12-24T08:30:29;9.30;99.90
20068;DHT22;10194;50.824;7.134;2022-12-24T08:32:55;9.30;99.90
20068;DHT22;10194;50.824;7.134;2022-12-24T08:35:21;9.30;99.90
20068;DHT22;10194;50.824;7.134;2022-12-24T08:37:46;9.40;99.90
20068;DHT22;10194;50.824;7.134;2022-12-24T08:40:13;9.50;99.90
20068;DHT22;10194;50.824;7.134;2022-12-24T08:42:39;9.60;99.90
20068;DHT22;10194;50.824;7.134;2022-12-24T08:45:05;9.80;99.90
20068;DHT22;10194;50.824;7.134;2022-12-24T08:47:31;10.00;99.90
20068;DHT22;10194;50.824;7.134;2022-12-24T08:49:57;10.10;99.90
20068;DHT22;10194;50.824;7.134;2022-12-24T08:52:22;10.20;99.90
20068;DHT22;10194;50.824;7.134;2022-12-24T08:54:48;10.30;99.90
20068;DHT22;10194;50.824;7.134;2022-12-24T08:57:14;10.30;99.90
20068;DHT22;10194;50.824;7.134;2022-12-24T08:59:40;10.50;99.90
20068;DHT22;10194;50.824;7.134;2022-12-24T09:02:05;10.60;99.90
20068;DHT22;10194;50.824;7.134;2022-12-24T09:04:32;10.60;99.90
20068;DHT22;10194;50.824;7.134;2022-12-24T09:06:58;10.60;99.90
20068;DHT22;10194;50.824;7.134;2022-12-24T09:09:24;10.60;99.90
20068;DHT22;10194;50.824;7.134;2022-12-24T09:11:50;10.60;99.90
20068;DHT22;10194;50.824;7.134;2022-12-24T09:14:15;10.60;99.90
20068;DHT22;10194;50.824;7.134;2022-12-24T09:16:41;10.60;99.90
20068;DHT22;10194;50.824;7.134;2022-12-24T09:19:07;10.60;99.90
20068;DHT22;10194;50.824;7.134;2022-12-24T09:21:32;10.50;99.90
20068;DHT22;10194;50.824;7.134;2022-12-24T09:23:58;10.60;99.90
20068;DHT22;10194;50.824;7.134;2022-12-24T09:26:26;10.60;99.90
20068;DHT22;10194;50.824;7.134;2022-12-24T09:28:56;10.60;99.90
20068;DHT22;10194;50.824;7.134;2022-12-24T09:31:22;10.60;99.90
20068;DHT22;10194;50.824;7.134;2022-12-24T09:33:49;10.70;99.90
20068;DHT22;10194;50.824;7.134;2022-12-24T09:36:15;10.70;99.90
20068;DHT22;10194;50.824;7.134;2022-12-24T09:38:41;10.70;99.90
20068;DHT22;10194;50.824;7.134;2022-12-24T09:44:35;10.80;99.90
20068;DHT22;10194;50.824;7.134;2022-12-24T09:53:17;10.80;99.90
20068;DHT22;10194;50.824;7.134;2022-12-24T09:55:51;10.90;99.90
20068;DHT22;10194;50.824;7.134;2022-12-24T09:58:30;10.80;99.90
20068;DHT22;10194;50.824;7.134;2022-12-24T10:01:00;10.90;99.90
20068;DHT22;10194;50.824;7.134;2022-12-24T10:03:26;10.90;99.90
20068;DHT22;10194;50.824;7.134;2022-12-24T10:06:00;11.00;99.90
20068;DHT22;10194;50.824;7.134;2022-12-24T10:22:25;11.10;99.90
20068;DHT22;10194;50.824;7.134;2022-12-24T10:25:20;11.10;99.90
20068;DHT22;10194;50.824;7.134;2022-12-24T10:27:51;11.20;99.90
20068;DHT22;10194;50.824;7.134;2022-12-24T10:30:21;11.20;99.90
20068;DHT22;10194;50.824;7.134;2022-12-24T10:32:49;11.30;99.90
20068;DHT22;10194;50.824;7.134;2022-12-24T10:35:24;11.30;99.90
20068;DHT22;10194;50.824;7.134;2022-12-24T10:37:52;11.30;99.90
20068;DHT22;10194;50.824;7.134;2022-12-24T10:40:34;11.40;99.90
20068;DHT22;10194;50.824;7.134;2022-12-24T10:43:13;11.40;99.90
20068;DHT22;10194;50.824;7.134;2022-12-24T10:45:49;11.40;99.90
20068;DHT22;10194;50.824;7.134;2022-12-24T10:48:31;11.40;99.90
20068;DHT22;10194;50.824;7.134;2022-12-24T10:51:04;11.40;99.90
20068;DHT22;10194;50.824;7.134;2022-12-24T10:53:44;11.50;99.90
20068;DHT22;10194;50.824;7.134;2022-12-24T10:56:16;11.50;99.90
20068;DHT22;10194;50.824;7.134;2022-12-24T10:58:44;11.50;99.90
20068;DHT22;10194;50.824;7.134;2022-12-24T11:01:12;11.50;99.90
20068;DHT22;10194;50.824;7.134;2022-12-24T11:03:38;11.50;99.90
20068;DHT22;10194;50.824;7.134;2022-12-24T11:06:07;11.60;99.90
20068;DHT22;10194;50.824;7.134;2022-12-24T11:08:36;11.60;99.90
20068;DHT22;10194;50.824;7.134;2022-12-24T11:11:12;11.60;99.90
20068;DHT22;10194;50.824;7.134;2022-12-24T11:13:52;11.50;99.90
20068;DHT22;10194;50.824;7.134;2022-12-24T11:16:29;11.50;99.90
20068;DHT22;10194;50.824;7.134;2022-12-24T11:19:00;11.50;99.90
20068;DHT22;10194;50.824;7.134;2022-12-24T11:23:57;11.70;99.90
20068;DHT22;10194;50.824;7.134;2022-12-24T11:26:28;11.90;99.90
20068;DHT22;10194;50.824;7.134;2022-12-24T11:29:20;12.00;99.90
20068;DHT22;10194;50.824;7.134;2022-12-24T11:31:51;12.00;99.90
20068;DHT22;10194;50.824;7.134;2022-12-24T11:34:28;11.90;99.90
20068;DHT22;10194;50.824;7.134;2022-12-24T11:37:16;11.90;99.90
20068;DHT22;10194;50.824;7.134;2022-12-24T11:39:53;11.90;99.90
20068;DHT22;10194;50.824;7.134;2022-12-24T11:42:34;11.90;99.90
20068;DHT22;10194;50.824;7.134;2022-12-24T11:45:25;11.80;99.90
20068;DHT22;10194;50.824;7.134;2022-12-24T11:47:54;11.70;99.90
20068;DHT22;10194;50.824;7.134;2022-12-24T11:58:39;11.80;99.90
20068;DHT22;10194;50.824;7.134;2022-12-24T12:01:27;11.80;99.90
20068;DHT22;10194;50.824;7.134;2022-12-24T12:04:11;11.90;99.90
20068;DHT22;10194;50.824;7.134;2022-12-24T12:06:45;11.80;99.90
20068;DHT22;10194;50.824;7.134;2022-12-24T12:09:29;11.80;99.90
20068;DHT22;10194;50.824;7.134;2022-12-24T12:12:07;11.80;99.90
20068;DHT22;10194;50.824;7.134;2022-12-24T12:14:45;11.80;99.90
20068;DHT22;10194;50.824;7.134;2022-12-24T12:17:25;11.80;99.90
20068;DHT22;10194;50.824;7.134;2022-12-24T12:23:02;12.10;99.90
20068;DHT22;10194;50.824;7.134;2022-12-24T12:25:50;12.30;99.90
20068;DHT22;10194;50.824;7.134;2022-12-24T12:28:22;12.40;99.90
20068;DHT22;10194;50.824;7.134;2022-12-24T12:31:01;12.40;99.90
20068;DHT22;10194;50.824;7.134;2022-12-24T12:33:47;12.50;99.90
20068;DHT22;10194;50.824;7.134;2022-12-24T12:36:20;12.70;99.90
20068;DHT22;10194;50.824;7.134;2022-12-24T12:38:48;12.60;99.90
20068;DHT22;10194;50.824;7.134;2022-12-24T12:41:26;12.60;99.90
20068;DHT22;10194;50.824;7.134;2022-12-24T12:47:22;12.60;99.90
20068;DHT22;10194;50.824;7.134;2022-12-24T12:53:22;12.70;99.90
20068;DHT22;10194;50.824;7.134;2022-12-24T12:56:28;12.70;99.90
20068;DHT22;10194;50.824;7.134;2022-12-24T12:59:08;12.60;99.90
20068;DHT22;10194;50.824;7.134;2022-12-24T13:07:31;12.50;99.90
20068;DHT22;10194;50.824;7.134;2022-12-24T13:19:25;12.60;99.90
20068;DHT22;10194;50.824;7.134;2022-12-24T13:22:14;12.70;99.90
20068;DHT22;10194;50.824;7.134;2022-12-24T13:24:47;12.90;99.90
20068;DHT22;10194;50.824;7.134;2022-12-24T13:34:57;13.30;99.90
20068;DHT22;10194;50.824;7.134;2022-12-24T13:37:35;13.30;99.90
20068;DHT22;10194;50.824;7.134;2022-12-24T13:50:48;12.90;99.90
20068;DHT22;10194;50.824;7.134;2022-12-24T13:53:37;12.90;99.90
20068;DHT22;10194;50.824;7.134;2022-12-24T13:56:09;12.90;99.90
20068;DHT22;10194;50.824;7.134;2022-12-24T13:58:48;12.80;99.90
20068;DHT22;10194;50.824;7.134;2022-12-24T14:01:19;12.80;99.90
20068;DHT22;10194;50.824;7.134;2022-12-24T14:03:52;12.80;99.90
20068;DHT22;10194;50.824;7.134;2022-12-24T14:06:23;12.80;99.90
20068;DHT22;10194;50.824;7.134;2022-12-24T14:09:04;12.80;99.90
20068;DHT22;10194;50.824;7.134;2022-12-24T14:14:31;12.80;99.90
20068;DHT22;10194;50.824;7.134;2022-12-24T14:19:58;12.70;99.90
20068;DHT22;10194;50.824;7.134;2022-12-24T14:22:29;12.70;99.90
20068;DHT22;10194;50.824;7.134;2022-12-24T14:25:13;12.60;99.90
20068;DHT22;10194;50.824;7.134;2022-12-24T14:27:55;12.50;99.90
20068;DHT22;10194;50.824;7.134;2022-12-24T14:30:26;12.40;99.90
20068;DHT22;10194;50.824;7.134;2022-12-24T14:32:54;12.30;99.90
20068;DHT22;10194;50.824;7.134;2022-12-24T14:35:37;12.20;99.90
20068;DHT22;10194;50.824;7.134;2022-12-24T14:38:06;12.10;99.90
20068;DHT22;10194;50.824;7.134;2022-12-24T14:43:50;11.80;99.90
20068;DHT22;10194;50.824;7.134;2022-12-24T14:46:49;11.70;99.90
20068;DHT22;10194;50.824;7.134;2022-12-24T14:52:24;11.50;99.90
20068;DHT22;10194;50.824;7.134;2022-12-24T15:00:58;11.40;99.90
20068;DHT22;10194;50.824;7.134;2022-12-24T15:03:30;11.40;99.90
20068;DHT22;10194;50.824;7.134;2022-12-24T15:06:05;11.40;99.90
20068;DHT22;10194;50.824;7.134;2022-12-24T15:08:38;11.40;99.90
20068;DHT22;10194;50.824;7.134;2022-12-24T15:11:07;11.40;99.90
20068;DHT22;10194;50.824;7.134;2022-12-24T15:13:39;11.40;99.90
20068;DHT22;10194;50.824;7.134;2022-12-24T15:16:11;11.30;99.90
20068;DHT22;10194;50.824;7.134;2022-12-24T15:18:45;11.20;99.90
20068;DHT22;10194;50.824;7.134;2022-12-24T15:21:37;11.10;99.90
20068;DHT22;10194;50.824;7.134;2022-12-24T15:24:30;11.10;99.90
20068;DHT22;10194;50.824;7.134;2022-12-24T15:26:58;11.10;99.90
20068;DHT22;10194;50.824;7.134;2022-12-24T15:29:29;11.10;99.90
20068;DHT22;10194;50.824;7.134;2022-12-24T15:31:58;11.00;99.90
20068;DHT22;10194;50.824;7.134;2022-12-24T15:37:22;10.90;99.90
20068;DHT22;10194;50.824;7.134;2022-12-24T15:40:18;10.80;99.90
20068;DHT22;10194;50.824;7.134;2022-12-24T15:42:46;10.80;99.90
20068;DHT22;10194;50.824;7.134;2022-12-24T15:45:25;10.70;99.90
20068;DHT22;10194;50.824;7.134;2022-12-24T15:48:00;10.60;99.90
20068;DHT22;10194;50.824;7.134;2022-12-24T15:50:37;10.60;99.90
20068;DHT22;10194;50.824;7.134;2022-12-24T15:53:19;10.60;99.90
20068;DHT22;10194;50.824;7.134;2022-12-24T15:56:05;10.50;99.90
20068;DHT22;10194;50.824;7.134;2022-12-24T15:58:42;10.50;99.90
20068;DHT22;10194;50.824;7.134;2022-12-24T16:03:39;10.40;99.90
20068;DHT22;10194;50.824;7.134;2022-12-24T16:06:08;10.30;99.90
20068;DHT22;10194;50.824;7.134;2022-12-24T16:08:40;10.20;99.90
20068;DHT22;10194;50.824;7.134;2022-12-24T16:11:17;10.00;99.90
20068;DHT22;10194;50.824;7.134;2022-12-24T16:16:41;9.70;99.90
20068;DHT22;10194;50.824;7.134;2022-12-24T16:19:21;9.50;99.90
20068;DHT22;10194;50.824;7.134;2022-12-24T16:21:54;9.40;99.90
20068;DHT22;10194;50.824;7.134;2022-12-24T16:24:28;9.20;99.90
20068;DHT22;10194;50.824;7.134;2022-12-24T16:26:55;9.10;99.90
20068;DHT22;10194;50.824;7.134;2022-12-24T16:29:22;9.10;99.90
20068;DHT22;10194;50.824;7.134;2022-12-24T16:31:55;9.00;99.90
20068;DHT22;10194;50.824;7.134;2022-12-24T16:34:25;8.80;99.90
20068;DHT22;10194;50.824;7.134;2022-12-24T16:36:54;8.80;99.90
20068;DHT22;10194;50.824;7.134;2022-12-24T16:39:23;8.80;99.90
20068;DHT22;10194;50.824;7.134;2022-12-24T16:41:52;8.80;99.90
20068;DHT22;10194;50.824;7.134;2022-12-24T16:44:38;8.70;99.90
20068;DHT22;10194;50.824;7.134;2022-12-24T16:47:06;8.60;99.90
20068;DHT22;10194;50.824;7.134;2022-12-24T16:49:36;8.50;99.90
20068;DHT22;10194;50.824;7.134;2022-12-24T16:52:09;8.50;99.90
20068;DHT22;10194;50.824;7.134;2022-12-24T16:54:39;8.50;99.90
20068;DHT22;10194;50.824;7.134;2022-12-24T16:57:05;8.60;99.90
20068;DHT22;10194;50.824;7.134;2022-12-24T16:59:32;8.60;99.90
20068;DHT22;10194;50.824;7.134;2022-12-24T17:01:58;8.70;99.90
20068;DHT22;10194;50.824;7.134;2022-12-24T17:04:24;8.70;99.90
20068;DHT22;10194;50.824;7.134;2022-12-24T17:06:49;8.80;99.90
20068;DHT22;10194;50.824;7.134;2022-12-24T17:09:16;8.90;99.90
20068;DHT22;10194;50.824;7.134;2022-12-24T17:11:42;8.90;99.90
20068;DHT22;10194;50.824;7.134;2022-12-24T17:14:11;8.90;99.90
20068;DHT22;10194;50.824;7.134;2022-12-24T17:16:37;8.90;99.90
20068;DHT22;10194;50.824;7.134;2022-12-24T17:19:03;8.90;99.90
20068;DHT22;10194;50.824;7.134;2022-12-24T17:21:29;8.90;99.90
20068;DHT22;10194;50.824;7.134;2022-12-24T17:23:55;8.80;99.90
20068;DHT22;10194;50.824;7.134;2022-12-24T17:26:20;8.80;99.90
20068;DHT22;10194;50.824;7.134;2022-12-24T17:28:46;8.80;99.90
20068;DHT22;10194;50.824;7.134;2022-12-24T17:31:14;8.70;99.90
20068;DHT22;10194;50.824;7.134;2022-12-24T17:33:41;8.60;99.90
20068;DHT22;10194;50.824;7.134;2022-12-24T17:36:07;8.60;99.90
20068;DHT22;10194;50.824;7.134;2022-12-24T17:38:36;8.60;99.90
20068;DHT22;10194;50.824;7.134;2022-12-24T17:41:03;8.50;99.90
20068;DHT22;10194;50.824;7.134;2022-12-24T17:43:32;8.30;99.90
20068;DHT22;10194;50.824;7.134;2022-12-24T17:46:02;8.30;99.90
20068;DHT22;10194;50.824;7.134;2022-12-24T17:48:29;8.20;99.90
20068;DHT22;10194;50.824;7.134;2022-12-24T17:50:54;8.00;99.90
20068;DHT22;10194;50.824;7.134;2022-12-24T17:53:20;8.00;99.90
20068;DHT22;10194;50.824;7.134;2022-12-24T17:55:46;8.00;99.90
20068;DHT22;10194;50.824;7.134;2022-12-24T17:58:11;8.00;99.90
20068;DHT22;10194;50.824;7.134;2022-12-24T18:00:40;8.00;99.90
20068;DHT22;10194;50.824;7.134;2022-12-24T18:03:06;8.00;99.90